Alexis Creek, Canada
Current Conditions -  °F | °C
As of 10:00 PM on Friday 24 Oct 2014 (Local Time) from CYWL Reporting Station
Scattered Clouds Scattered Clouds  
Wind Chill: 30°   Ceiling: Unl
Heat Index: 37°   Visibility: 15mi
Dew Point: 30°   Wind: 10mph
Humidity: 75%   Direction: 90°E
Pressure: 29.93"   Gusts: NA
Location:  52.08°N, 123.28°W
Report Text: CYWL 250500Z 09009KT 15SM SCT220 03/M01 A2993 RMK CI4 SLP168
Loading
Personal Weather Stations






























Interactive Weather Map
Tropical Storm Tracking
New forecast layout! Learn more

10-Day Weather Forecast

Advertisements
Track Severe Weather on mobile